createdAt,value
2023-02-17T00:01:12.100Z,5.75
2023-02-17T00:03:38.732Z,5.73
2023-02-17T00:06:07.192Z,5.76
2023-02-17T00:08:33.709Z,5.79
2023-02-17T00:11:00.427Z,5.68
2023-02-17T00:13:26.877Z,5.48
2023-02-17T00:15:53.854Z,5.47
2023-02-17T00:18:20.391Z,5.55
2023-02-17T00:20:46.804Z,5.58
2023-02-17T00:23:13.226Z,5.63
2023-02-17T00:25:40.157Z,5.64
2023-02-17T00:28:07.265Z,5.58
2023-02-17T00:30:33.677Z,5.56
2023-02-17T00:33:00.264Z,5.58
2023-02-17T00:35:26.657Z,5.65
2023-02-17T00:37:53.034Z,5.73
2023-02-17T00:40:19.456Z,5.68
2023-02-17T00:42:45.927Z,5.62
2023-02-17T00:45:12.319Z,5.47
2023-02-17T00:47:38.680Z,5.57
2023-02-17T00:50:06.379Z,5.53
2023-02-17T00:52:32.736Z,5.46
2023-02-17T00:54:59.108Z,5.51
2023-02-17T00:57:26.310Z,5.43
2023-02-17T00:59:52.790Z,5.36
2023-02-17T01:02:19.132Z,5.33
2023-02-17T01:04:45.564Z,5.29
2023-02-17T01:07:11.984Z,5.29
2023-02-17T01:09:38.357Z,5.35
2023-02-17T01:12:04.888Z,5.22
2023-02-17T01:14:31.329Z,5.36
2023-02-17T01:16:57.716Z,5.36
2023-02-17T01:19:24.060Z,5.22
2023-02-17T01:21:50.503Z,4.98
2023-02-17T01:24:16.966Z,4.96
2023-02-17T01:26:43.306Z,4.99
2023-02-17T01:29:10.137Z,4.98
2023-02-17T01:31:36.993Z,4.98
2023-02-17T01:34:04.393Z,5.23
2023-02-17T01:36:31.126Z,5.21
2023-02-17T01:38:57.622Z,5.16
2023-02-17T01:41:27.128Z,5.06
2023-02-17T01:44:14.585Z,5.09
2023-02-17T01:46:43.466Z,5.21
2023-02-17T01:49:28.088Z,4.97
2023-02-17T01:52:05.413Z,4.83
2023-02-17T01:55:00.695Z,4.90
2023-02-17T01:57:30.231Z,4.83
2023-02-17T01:59:56.830Z,4.82
2023-02-17T02:02:23.339Z,4.94
2023-02-17T02:04:53.109Z,5.01
2023-02-17T02:07:30.466Z,4.87
2023-02-17T02:09:58.297Z,4.87
2023-02-17T02:12:30.360Z,4.82
2023-02-17T02:15:19.557Z,4.81
2023-02-17T02:18:02.113Z,4.89
2023-02-17T02:20:57.204Z,5.05
2023-02-17T02:23:47.292Z,4.92
2023-02-17T02:26:22.513Z,4.72
2023-02-17T02:29:14.128Z,4.92
2023-02-17T02:31:46.800Z,4.90
2023-02-17T02:34:23.146Z,4.83
2023-02-17T02:36:54.861Z,4.90
2023-02-17T02:39:26.804Z,4.88
2023-02-17T02:41:57.080Z,4.92
2023-02-17T02:44:23.701Z,4.72
2023-02-17T02:47:05.131Z,4.90
2023-02-17T02:49:35.265Z,4.63
2023-02-17T02:52:24.503Z,4.48
2023-02-17T02:55:30.210Z,4.39
2023-02-17T02:58:06.922Z,4.56
2023-02-17T03:00:44.949Z,4.58
2023-02-17T03:03:28.945Z,4.57
2023-02-17T03:06:04.934Z,4.71
2023-02-17T03:08:34.513Z,4.77
2023-02-17T03:11:01.564Z,4.58
2023-02-17T03:13:28.067Z,4.58
2023-02-17T03:15:54.538Z,4.76
2023-02-17T03:18:20.965Z,4.75
2023-02-17T03:20:57.379Z,4.59
2023-02-17T03:23:23.859Z,4.58
2023-02-17T03:25:50.325Z,4.49
2023-02-17T03:28:16.718Z,4.53
2023-02-17T03:30:43.137Z,4.54
2023-02-17T03:33:09.614Z,4.51
2023-02-17T03:35:36.027Z,4.69
2023-02-17T03:38:02.818Z,4.78
2023-02-17T03:40:29.245Z,4.74
2023-02-17T03:42:57.695Z,4.51
2023-02-17T03:45:24.503Z,4.47
2023-02-17T03:47:51.104Z,4.43
2023-02-17T03:50:17.618Z,4.41
2023-02-17T03:52:45.318Z,4.51
2023-02-17T03:55:11.729Z,4.40
2023-02-17T03:57:38.213Z,4.45
2023-02-17T04:00:06.711Z,4.51
2023-02-17T04:02:33.107Z,4.39
2023-02-17T04:04:59.472Z,4.49
2023-02-17T04:07:25.870Z,4.41
2023-02-17T04:09:52.334Z,4.24
2023-02-17T04:12:18.821Z,4.04
2023-02-17T04:14:45.203Z,4.04
2023-02-17T04:17:11.574Z,4.09
2023-02-17T04:19:38.078Z,4.03
2023-02-17T04:22:08.770Z,3.97
2023-02-17T04:24:37.137Z,4.14
2023-02-17T04:27:04.940Z,4.27
2023-02-17T04:29:32.353Z,4.30
2023-02-17T04:31:58.872Z,4.20
2023-02-17T04:34:25.553Z,4.19
2023-02-17T04:36:52.057Z,4.34
2023-02-17T04:39:18.789Z,4.29
2023-02-17T04:41:45.245Z,4.24
2023-02-17T04:44:11.652Z,4.22
2023-02-17T04:46:38.170Z,4.30
2023-02-17T04:49:04.592Z,4.18
2023-02-17T04:51:31.105Z,4.16
2023-02-17T04:53:57.966Z,4.29
2023-02-17T04:56:24.371Z,4.25
2023-02-17T04:58:50.737Z,4.36
2023-02-17T05:01:17.190Z,4.22
2023-02-17T05:03:43.797Z,4.18
2023-02-17T05:06:10.209Z,4.13
2023-02-17T05:08:36.569Z,4.13
2023-02-17T05:11:02.993Z,4.14
2023-02-17T05:13:29.351Z,4.13
2023-02-17T05:15:55.757Z,4.20
2023-02-17T05:18:22.221Z,3.99
2023-02-17T05:20:48.628Z,3.87
2023-02-17T05:23:15.067Z,3.83
2023-02-17T05:25:41.593Z,3.95
2023-02-17T05:28:08.057Z,4.05
2023-02-17T05:30:34.422Z,4.07
2023-02-17T05:33:00.944Z,4.14
2023-02-17T05:35:27.358Z,3.94
2023-02-17T05:37:53.804Z,4.04
2023-02-17T05:40:20.287Z,3.92
2023-02-17T05:42:46.654Z,3.83
2023-02-17T05:45:13.094Z,3.78
2023-02-17T05:47:39.512Z,3.96
2023-02-17T05:50:06.534Z,3.99
2023-02-17T05:52:32.998Z,4.02
2023-02-17T05:54:59.353Z,4.06
2023-02-17T05:57:25.810Z,3.97
2023-02-17T05:59:52.219Z,3.96
2023-02-17T06:02:18.681Z,3.75
2023-02-17T06:04:45.178Z,3.78
2023-02-17T06:07:11.627Z,3.99
2023-02-17T06:09:38.014Z,4.00
2023-02-17T06:12:04.896Z,4.02
2023-02-17T06:14:31.324Z,4.14
2023-02-17T06:16:59.365Z,4.13
2023-02-17T06:19:27.110Z,3.99
2023-02-17T06:21:53.541Z,3.79
2023-02-17T06:24:19.937Z,3.76
2023-02-17T06:26:46.374Z,3.81
2023-02-17T06:29:12.820Z,4.00
2023-02-17T06:31:39.351Z,3.92
2023-02-17T06:34:06.719Z,3.77
2023-02-17T06:36:33.559Z,3.86
2023-02-17T06:38:59.969Z,3.94
2023-02-17T06:41:26.363Z,3.96
2023-02-17T06:43:52.736Z,4.06
2023-02-17T06:46:19.111Z,3.94
2023-02-17T06:48:45.494Z,3.87
2023-02-17T06:51:11.989Z,3.86
2023-02-17T06:53:38.363Z,4.07
2023-02-17T06:56:05.347Z,4.04
2023-02-17T06:58:32.698Z,4.23
2023-02-17T07:00:59.130Z,4.34
2023-02-17T07:03:25.529Z,4.21
2023-02-17T07:05:56.333Z,4.17
2023-02-17T07:08:22.714Z,4.33
2023-02-17T07:10:49.075Z,4.52
2023-02-17T07:13:15.514Z,4.37
2023-02-17T07:15:41.922Z,4.07
2023-02-17T07:18:08.344Z,3.96
2023-02-17T07:20:34.810Z,4.18
2023-02-17T07:23:01.317Z,4.27
2023-02-17T07:25:28.880Z,4.41
2023-02-17T07:27:55.725Z,4.42
2023-02-17T07:30:22.222Z,4.36
2023-02-17T07:32:48.637Z,4.23
2023-02-17T07:35:15.112Z,4.34
2023-02-17T07:37:41.473Z,4.43
2023-02-17T07:40:08.204Z,4.52
2023-02-17T07:42:34.682Z,4.70
2023-02-17T07:45:01.045Z,4.81
2023-02-17T07:47:27.448Z,4.89
2023-02-17T07:49:53.852Z,4.78
2023-02-17T07:52:20.256Z,4.80
2023-02-17T07:54:46.748Z,5.01
2023-02-17T07:57:13.179Z,5.05
2023-02-17T07:59:39.632Z,4.93
2023-02-17T08:02:06.051Z,4.98
2023-02-17T08:04:32.893Z,5.11
2023-02-17T08:06:59.335Z,5.22
2023-02-17T08:09:44.171Z,5.34
2023-02-17T08:12:34.989Z,5.36
2023-02-17T08:15:02.007Z,5.34
2023-02-17T08:17:29.437Z,5.41
2023-02-17T08:19:56.040Z,5.35
2023-02-17T08:22:22.540Z,5.43
2023-02-17T08:24:49.124Z,5.54
2023-02-17T08:27:15.784Z,5.55
2023-02-17T08:29:42.411Z,5.65
2023-02-17T08:32:09.342Z,5.73
2023-02-17T08:34:36.010Z,5.84
2023-02-17T08:37:04.477Z,6.00
2023-02-17T08:39:30.992Z,5.98
2023-02-17T08:41:57.476Z,6.07
2023-02-17T08:44:23.976Z,6.10
2023-02-17T08:46:51.730Z,6.21
2023-02-17T08:49:23.875Z,6.28
2023-02-17T08:51:51.541Z,6.21
2023-02-17T08:54:18.388Z,6.37
2023-02-17T08:56:44.790Z,6.48
2023-02-17T08:59:12.312Z,6.53
2023-02-17T09:01:40.111Z,6.51
2023-02-17T09:04:08.441Z,6.62
2023-02-17T09:06:40.987Z,6.70
2023-02-17T09:09:09.387Z,6.76
2023-02-17T09:11:35.851Z,6.87
2023-02-17T09:14:02.624Z,6.86
2023-02-17T09:16:29.258Z,6.98
2023-02-17T09:18:55.808Z,7.13
2023-02-17T09:21:22.290Z,7.14
2023-02-17T09:23:49.843Z,7.20
2023-02-17T09:26:17.982Z,7.17
2023-02-17T09:28:45.074Z,7.29
2023-02-17T09:31:13.459Z,7.38
2023-02-17T09:33:41.347Z,7.34
2023-02-17T09:36:10.179Z,7.30
2023-02-17T09:38:41.799Z,7.33
2023-02-17T09:41:16.854Z,7.39
2023-02-17T09:43:43.777Z,7.48
2023-02-17T09:46:16.168Z,7.56
2023-02-17T09:48:44.107Z,7.60
2023-02-17T09:51:51.860Z,7.71
2023-02-17T09:54:26.420Z,7.76
2023-02-17T09:56:54.732Z,7.88
2023-02-17T09:59:45.113Z,7.94
2023-02-17T10:02:21.701Z,7.99
2023-02-17T10:04:52.153Z,8.07
2023-02-17T10:07:25.869Z,8.10
2023-02-17T10:10:16.362Z,8.21
2023-02-17T10:12:50.252Z,8.22
2023-02-17T10:15:22.111Z,8.25
2023-02-17T10:17:53.768Z,8.38
2023-02-17T10:20:35.526Z,8.55
2023-02-17T10:23:10.622Z,8.59
2023-02-17T10:25:55.928Z,8.69
2023-02-17T10:28:46.022Z,8.74
2023-02-17T10:31:19.785Z,8.78
2023-02-17T10:33:49.204Z,8.84
2023-02-17T10:36:18.561Z,8.81
2023-02-17T10:39:00.579Z,8.79
2023-02-17T10:41:34.595Z,8.75
2023-02-17T10:44:06.769Z,8.75
2023-02-17T10:46:34.781Z,8.79
2023-02-17T10:49:01.496Z,8.88
2023-02-17T10:51:31.708Z,8.93
2023-02-17T10:54:23.028Z,8.99
2023-02-17T10:56:54.828Z,9.05
2023-02-17T10:59:26.140Z,9.12
2023-02-17T11:01:59.834Z,9.20
2023-02-17T11:04:26.303Z,9.28
2023-02-17T11:06:57.862Z,9.29
2023-02-17T11:09:32.775Z,9.31
2023-02-17T11:12:02.528Z,9.33
2023-02-17T11:14:31.836Z,9.36
2023-02-17T11:17:01.598Z,9.32
2023-02-17T11:19:34.413Z,9.39
2023-02-17T11:22:03.817Z,9.57
2023-02-17T11:24:32.427Z,9.59
2023-02-17T11:27:04.946Z,9.62
2023-02-17T11:29:31.631Z,9.68
2023-02-17T11:31:59.793Z,9.74
2023-02-17T11:34:30.488Z,9.76
2023-02-17T11:37:02.608Z,9.79
2023-02-17T11:39:29.435Z,9.83
2023-02-17T11:41:55.913Z,9.89
2023-02-17T11:44:24.878Z,9.90
2023-02-17T11:47:11.466Z,9.97
2023-02-17T11:50:02.279Z,10.02
2023-02-17T11:52:37.741Z,10.04
2023-02-17T11:55:18.751Z,10.08
2023-02-17T11:57:51.657Z,10.15
2023-02-17T12:00:20.183Z,10.19
2023-02-17T12:03:04.846Z,10.21
2023-02-17T12:05:49.503Z,10.27
2023-02-17T12:08:30.606Z,10.38
2023-02-17T12:11:01.464Z,10.41
2023-02-17T12:13:36.987Z,10.53
2023-02-17T12:16:21.853Z,10.54
2023-02-17T12:19:00.103Z,10.61
2023-02-17T12:21:48.597Z,10.59
2023-02-17T12:24:27.171Z,10.64
2023-02-17T12:27:07.409Z,10.63
2023-02-17T12:29:45.930Z,10.65
2023-02-17T12:32:32.907Z,10.64
2023-02-17T12:35:12.575Z,10.59
2023-02-17T12:37:50.018Z,10.56
2023-02-17T12:40:30.151Z,10.58
2023-02-17T12:43:01.466Z,10.60
2023-02-17T12:45:39.397Z,10.54
2023-02-17T12:48:14.837Z,10.54
2023-02-17T12:50:54.890Z,10.56
2023-02-17T12:53:38.972Z,10.55
2023-02-17T12:56:28.384Z,10.52
2023-02-17T12:58:59.076Z,10.63
2023-02-17T13:01:29.545Z,10.60
2023-02-17T13:03:59.766Z,10.69
2023-02-17T13:06:43.119Z,10.76
2023-02-17T13:09:21.390Z,10.80
2023-02-17T13:11:49.064Z,10.79
2023-02-17T13:14:27.454Z,10.79
2023-02-17T13:16:54.308Z,10.78
2023-02-17T13:19:32.580Z,10.83
2023-02-17T13:22:02.156Z,10.85
2023-02-17T13:24:50.721Z,10.81
2023-02-17T13:27:20.267Z,10.78
2023-02-17T13:29:46.718Z,10.81
2023-02-17T13:32:13.290Z,10.78
2023-02-17T13:34:46.321Z,10.84
2023-02-17T13:37:28.162Z,10.94
2023-02-17T13:39:54.590Z,10.86
2023-02-17T13:42:44.295Z,10.86
2023-02-17T13:45:20.142Z,10.89
2023-02-17T13:47:49.086Z,11.01
2023-02-17T13:50:28.237Z,11.05
2023-02-17T13:52:55.521Z,11.07
2023-02-17T13:55:24.084Z,11.20
2023-02-17T13:57:58.286Z,11.20
2023-02-17T14:00:31.852Z,11.09
2023-02-17T14:03:01.894Z,11.17
2023-02-17T14:05:38.712Z,11.14
2023-02-17T14:08:28.491Z,11.21
2023-02-17T14:10:55.495Z,11.23
2023-02-17T14:13:23.669Z,11.20
2023-02-17T14:15:58.123Z,11.24
2023-02-17T14:18:30.537Z,11.26
2023-02-17T14:21:06.643Z,11.21
2023-02-17T14:23:46.679Z,11.24
2023-02-17T14:26:26.435Z,11.23
2023-02-17T14:28:54.975Z,11.10
2023-02-17T14:31:22.750Z,11.23
2023-02-17T14:34:01.899Z,11.25
2023-02-17T14:36:34.882Z,11.29
2023-02-17T14:39:03.132Z,11.26
2023-02-17T14:41:29.890Z,11.25
2023-02-17T14:43:56.801Z,11.24
2023-02-17T14:46:23.204Z,11.23
2023-02-17T14:48:50.652Z,11.30
2023-02-17T14:51:23.203Z,11.26
2023-02-17T14:53:50.782Z,11.27
2023-02-17T14:56:28.898Z,11.35
2023-02-17T14:58:55.408Z,11.32
2023-02-17T15:01:23.938Z,11.27
2023-02-17T15:03:50.488Z,11.18
2023-02-17T15:06:19.958Z,11.20
2023-02-17T15:08:49.118Z,11.27
2023-02-17T15:11:23.158Z,11.26
2023-02-17T15:13:49.512Z,11.25
2023-02-17T15:16:16.227Z,11.21
2023-02-17T15:18:42.981Z,11.19
2023-02-17T15:21:36.547Z,11.18
2023-02-17T15:24:13.985Z,11.24
2023-02-17T15:26:40.351Z,11.17
2023-02-17T15:29:10.322Z,11.21
2023-02-17T15:31:36.797Z,11.27
2023-02-17T15:34:03.225Z,11.21
2023-02-17T15:36:29.715Z,11.21
2023-02-17T15:38:56.066Z,11.22
2023-02-17T15:41:25.810Z,11.23
2023-02-17T15:43:54.514Z,11.24
2023-02-17T15:46:30.466Z,11.26
2023-02-17T15:48:56.905Z,11.23
2023-02-17T15:51:24.659Z,11.21
2023-02-17T15:53:51.846Z,11.12
2023-02-17T15:56:31.482Z,11.12
2023-02-17T15:59:01.214Z,11.10
2023-02-17T16:01:30.711Z,11.07
2023-02-17T16:03:57.863Z,11.08
2023-02-17T16:06:25.734Z,11.05
2023-02-17T16:08:52.250Z,10.97
2023-02-17T16:11:20.113Z,10.90
2023-02-17T16:13:47.615Z,10.90
2023-02-17T16:16:21.958Z,10.87
2023-02-17T16:18:48.927Z,10.80
2023-02-17T16:21:15.984Z,10.76
2023-02-17T16:23:42.804Z,10.70
2023-02-17T16:26:34.181Z,10.65
2023-02-17T16:29:13.516Z,10.56
2023-02-17T16:31:39.954Z,10.51
2023-02-17T16:34:06.368Z,10.40
2023-02-17T16:36:35.388Z,10.31
2023-02-17T16:39:10.206Z,10.24
2023-02-17T16:41:36.651Z,10.14
2023-02-17T16:44:03.072Z,10.15
2023-02-17T16:46:35.826Z,10.04
2023-02-17T16:49:15.308Z,10.01
2023-02-17T16:51:41.712Z,9.85
2023-02-17T16:54:09.860Z,9.69
2023-02-17T16:56:42.931Z,9.70
2023-02-17T16:59:14.505Z,9.74
2023-02-17T17:01:40.939Z,9.63
2023-02-17T17:04:08.546Z,9.47
2023-02-17T17:06:36.915Z,9.59
2023-02-17T17:09:05.459Z,9.46
2023-02-17T17:11:32.455Z,9.44
2023-02-17T17:13:59.140Z,9.45
2023-02-17T17:16:34.677Z,9.36
2023-02-17T17:19:02.139Z,9.26
2023-02-17T17:21:28.818Z,9.28
2023-02-17T17:23:55.310Z,9.16
2023-02-17T17:26:32.613Z,9.04
2023-02-17T17:28:59.888Z,9.02
2023-02-17T17:31:27.218Z,9.03
2023-02-17T17:33:54.950Z,9.05
2023-02-17T17:36:29.423Z,9.17
2023-02-17T17:38:56.734Z,9.12
2023-02-17T17:41:26.157Z,9.05
2023-02-17T17:43:53.532Z,8.98
2023-02-17T17:46:23.004Z,8.87
2023-02-17T17:48:50.058Z,8.80
2023-02-17T17:51:19.660Z,8.60
2023-02-17T17:53:47.270Z,8.63
2023-02-17T17:56:20.538Z,8.60
2023-02-17T17:58:47.173Z,8.58
2023-02-17T18:01:13.916Z,8.59
2023-02-17T18:03:41.660Z,8.59
2023-02-17T18:06:12.863Z,8.51
2023-02-17T18:08:40.116Z,8.44
2023-02-17T18:11:07.892Z,8.47
2023-02-17T18:13:34.941Z,8.47
2023-02-17T18:16:02.691Z,8.48
2023-02-17T18:18:29.218Z,8.39
2023-02-17T18:20:55.618Z,8.28
2023-02-17T18:23:22.138Z,8.26
2023-02-17T18:25:48.516Z,8.28
2023-02-17T18:28:14.957Z,8.26
2023-02-17T18:30:42.960Z,8.21
2023-02-17T18:33:09.467Z,8.18
2023-02-17T18:35:38.501Z,8.21
2023-02-17T18:38:04.905Z,8.30
2023-02-17T18:40:31.500Z,8.21
2023-02-17T18:42:58.132Z,8.16
2023-02-17T18:45:26.122Z,8.03
2023-02-17T18:47:52.697Z,7.99
2023-02-17T18:50:19.140Z,7.96
2023-02-17T18:52:45.526Z,7.99
2023-02-17T18:55:12.451Z,7.96
2023-02-17T18:57:39.061Z,7.78
2023-02-17T19:00:09.543Z,7.84
2023-02-17T19:02:40.501Z,7.91
2023-02-17T19:05:09.012Z,8.06
2023-02-17T19:07:35.624Z,8.03
2023-02-17T19:10:02.229Z,7.85
2023-02-17T19:12:28.604Z,7.89
2023-02-17T19:14:56.067Z,7.83
2023-02-17T19:17:24.158Z,7.86
2023-02-17T19:19:50.881Z,7.87
2023-02-17T19:22:18.008Z,7.82
2023-02-17T19:24:44.963Z,7.75
2023-02-17T19:27:11.936Z,7.78
2023-02-17T19:29:38.335Z,7.73
2023-02-17T19:32:04.977Z,7.57
2023-02-17T19:34:32.052Z,7.41
2023-02-17T19:36:58.619Z,7.41
2023-02-17T19:39:25.061Z,7.57
2023-02-17T19:41:51.463Z,7.60
2023-02-17T19:44:17.862Z,7.57
2023-02-17T19:46:44.306Z,7.52
2023-02-17T19:49:10.702Z,7.48
2023-02-17T19:51:37.172Z,7.66
2023-02-17T19:54:03.633Z,7.71
2023-02-17T19:56:32.935Z,7.51
2023-02-17T19:58:59.737Z,7.58
2023-02-17T20:01:31.944Z,7.42
2023-02-17T20:04:01.322Z,7.47
2023-02-17T20:06:33.480Z,7.44
2023-02-17T20:09:03.277Z,7.33
2023-02-17T20:11:29.987Z,7.35
2023-02-17T20:13:57.688Z,7.42
2023-02-17T20:16:24.378Z,7.46
2023-02-17T20:18:51.239Z,7.30
2023-02-17T20:21:21.655Z,7.33
2023-02-17T20:23:48.625Z,7.28
2023-02-17T20:26:19.689Z,7.23
2023-02-17T20:28:46.352Z,7.20
2023-02-17T20:31:12.924Z,7.16
2023-02-17T20:33:40.386Z,7.22
2023-02-17T20:36:08.105Z,7.28
2023-02-17T20:38:34.898Z,7.35
2023-02-17T20:41:01.647Z,7.31
2023-02-17T20:43:28.303Z,7.30
2023-02-17T20:45:55.271Z,7.22
2023-02-17T20:48:27.290Z,6.98
2023-02-17T20:50:58.249Z,7.09
2023-02-17T20:53:26.142Z,7.07
2023-02-17T20:55:52.858Z,6.83
2023-02-17T20:58:19.268Z,6.88
2023-02-17T21:00:46.171Z,6.91
2023-02-17T21:03:12.767Z,7.03
2023-02-17T21:05:39.250Z,7.05
2023-02-17T21:08:05.637Z,7.02
2023-02-17T21:10:33.042Z,6.89
2023-02-17T21:12:59.445Z,6.92
2023-02-17T21:15:27.212Z,7.06
2023-02-17T21:17:53.638Z,7.00
2023-02-17T21:20:21.848Z,6.93
2023-02-17T21:22:48.472Z,6.71
2023-02-17T21:25:15.035Z,6.67
2023-02-17T21:27:41.564Z,6.68
2023-02-17T21:30:09.867Z,6.82
2023-02-17T21:32:36.352Z,6.71
2023-02-17T21:35:03.064Z,6.77
2023-02-17T21:37:29.480Z,6.72
2023-02-17T21:39:55.950Z,6.78
2023-02-17T21:42:44.666Z,6.89
2023-02-17T21:45:12.162Z,6.88
2023-02-17T21:47:38.519Z,6.82
2023-02-17T21:50:05.505Z,6.67
2023-02-17T21:52:31.891Z,6.63
2023-02-17T21:54:58.263Z,6.78
2023-02-17T21:57:24.622Z,6.66
2023-02-17T21:59:51.076Z,6.72
2023-02-17T22:02:17.527Z,6.72
2023-02-17T22:04:44.167Z,6.71
2023-02-17T22:07:11.568Z,6.76
2023-02-17T22:09:37.987Z,6.70
2023-02-17T22:12:04.579Z,6.49
2023-02-17T22:14:30.947Z,6.42
2023-02-17T22:16:57.464Z,6.43
2023-02-17T22:19:24.768Z,6.61
2023-02-17T22:21:51.924Z,6.46
2023-02-17T22:24:20.638Z,6.29
2023-02-17T22:26:48.273Z,6.43
2023-02-17T22:29:14.799Z,6.41
2023-02-17T22:31:41.335Z,6.39
2023-02-17T22:34:09.886Z,6.49
2023-02-17T22:36:37.538Z,6.48
2023-02-17T22:39:07.241Z,6.46
2023-02-17T22:41:34.564Z,6.29
2023-02-17T22:44:01.952Z,6.16
2023-02-17T22:46:28.449Z,6.21
2023-02-17T22:48:56.508Z,6.38
2023-02-17T22:51:31.871Z,6.23
2023-02-17T22:54:00.254Z,6.07
2023-02-17T22:56:26.721Z,6.05
2023-02-17T22:58:57.818Z,6.08
2023-02-17T23:01:24.982Z,6.17
2023-02-17T23:03:54.305Z,6.29
2023-02-17T23:06:27.442Z,6.40
2023-02-17T23:08:54.159Z,6.34
2023-02-17T23:11:44.590Z,6.16
2023-02-17T23:14:12.291Z,6.28
2023-02-17T23:16:39.133Z,6.20
2023-02-17T23:19:08.071Z,6.12
2023-02-17T23:21:34.948Z,6.12
2023-02-17T23:24:01.912Z,5.99
2023-02-17T23:26:28.411Z,6.11
2023-02-17T23:28:54.820Z,6.09
2023-02-17T23:31:21.374Z,6.11
2023-02-17T23:33:47.816Z,6.01
2023-02-17T23:36:15.037Z,5.93
2023-02-17T23:38:41.637Z,6.03
2023-02-17T23:41:08.081Z,6.00
2023-02-17T23:43:34.457Z,5.88
2023-02-17T23:46:01.204Z,5.78
2023-02-17T23:48:27.703Z,5.76
2023-02-17T23:51:02.164Z,6.03
2023-02-17T23:53:29.345Z,5.99
2023-02-17T23:56:02.878Z,5.85
2023-02-17T23:58:29.848Z,5.86
